This is the latest recevied weather packets stored in our database for station/object IU6BJT. If no packets are shown the sender has not sent any weather packets the latest 10 day(s).
| Time | Temp. | Humidity | Pressure | Rain* | Wind** | Luminosity | Snow |
|---|---|---|---|---|---|---|---|
| 1777707017 | 16.67° C | 54% | 1025.9 hPa | 0 mm | - | - | - |
| 1777703419 | 12.22° C | 55% | 1025.9 hPa | 0 mm | - | - | - |
| 1777698053 | 7.22° C | 69% | 1025.9 hPa | 0 mm | - | - | - |
| 1777695019 | 6.67° C | 71% | 1025.7 hPa | 0 mm | - | - | - |
| 1777693833 | 5.56° C | 74% | 1025.6 hPa | 0 mm | - | - | - |
| 1777690216 | 6.67° C | 70% | 1025.7 hPa | 0 mm | - | - | - |
| 1777675847 | 8.33° C | 65% | 1026.1 hPa | 0 mm | - | - | - |
| 1777666825 | 11.11° C | 58% | 1025.8 hPa | 0 mm | - | - | - |
| 1777659027 | 14.44° C | 43% | 1024.8 hPa | 0 mm | - | - | - |
| 1777656616 | 15.56° C | 39% | 1024.8 hPa | 0 mm | - | - | - |
| 1777654847 | 16.11° C | 37% | 1024.8 hPa | 0 mm | - | - | - |
| 1777651832 | 16.11° C | 37% | 1024.8 hPa | 0 mm | - | - | - |
| 1777643433 | 16.11° C | 37% | 1025.5 hPa | 0 mm | - | - | - |
| 1777642830 | 16.11° C | 38% | 1025.7 hPa | 0 mm | - | - | - |
| 1777638652 | 16.11° C | 38% | 1026.2 hPa | 0 mm | - | - | - |
| 1777633826 | 16.67° C | 39% | 1026.6 hPa | 0 mm | - | - | - |
| 1777628420 | 16.67° C | 38% | 1026.7 hPa | 0 mm | - | - | - |
| 1777615818 | 10.56° C | 68% | 1025.1 hPa | 0 mm | - | - | - |
| 1777615235 | 10° C | 71% | 1025 hPa | 0 mm | - | - | - |
| 1777614050 | 8.33° C | 77% | 1024.8 hPa | 0 mm | - | - | - |
| 1777613427 | 7.78° C | 79% | 1024.8 hPa | 0 mm | - | - | - |
| 1777612221 | 6.67° C | 81% | 1024.8 hPa | 0 mm | - | - | - |
| 1777611035 | 6.11° C | 83% | 1024.6 hPa | 0 mm | - | - | - |
| 1777609831 | 5.56° C | 84% | 1024.7 hPa | 0 mm | - | - | - |
| 1777608624 | 5.56° C | 84% | 1024.5 hPa | 0 mm | - | - | - |
* Rain latest hour (hover to see other rain measurements)
** Current wind speed in m/s (hover to see current wind gust speed)